sensor_id;sensor_type;location;lat;lon;timestamp;P1;durP1;ratioP1;P2;durP2;ratioP2
15061;SDS011;7630;50.306;8.566;2022-10-15T00:00:51;2.53;;;2.33;;
15061;SDS011;7630;50.306;8.566;2022-10-15T00:04:52;2.50;;;2.40;;
15061;SDS011;7630;50.306;8.566;2022-10-15T00:08:53;2.07;;;1.97;;
15061;SDS011;7630;50.306;8.566;2022-10-15T00:12:54;2.43;;;2.27;;
15061;SDS011;7630;50.306;8.566;2022-10-15T00:16:55;2.30;;;2.17;;
15061;SDS011;7630;50.306;8.566;2022-10-15T00:20:56;2.80;;;2.60;;
15061;SDS011;7630;50.306;8.566;2022-10-15T00:24:56;2.67;;;2.47;;
15061;SDS011;7630;50.306;8.566;2022-10-15T00:28:59;2.93;;;2.73;;
15061;SDS011;7630;50.306;8.566;2022-10-15T00:33:02;2.27;;;2.07;;
15061;SDS011;7630;50.306;8.566;2022-10-15T00:37:03;2.90;;;2.70;;
15061;SDS011;7630;50.306;8.566;2022-10-15T00:41:05;2.27;;;2.17;;
15061;SDS011;7630;50.306;8.566;2022-10-15T00:45:09;2.60;;;2.40;;
15061;SDS011;7630;50.306;8.566;2022-10-15T00:53:37;3.03;;;2.83;;
15061;SDS011;7630;50.306;8.566;2022-10-15T00:57:38;3.60;;;3.40;;
15061;SDS011;7630;50.306;8.566;2022-10-15T01:01:40;3.17;;;2.97;;
15061;SDS011;7630;50.306;8.566;2022-10-15T01:05:41;2.87;;;2.67;;
15061;SDS011;7630;50.306;8.566;2022-10-15T01:09:43;2.37;;;2.17;;
15061;SDS011;7630;50.306;8.566;2022-10-15T01:18:11;2.10;;;2.00;;
15061;SDS011;7630;50.306;8.566;2022-10-15T01:22:15;1.67;;;1.57;;
15061;SDS011;7630;50.306;8.566;2022-10-15T01:26:33;2.37;;;2.20;;
15061;SDS011;7630;50.306;8.566;2022-10-15T01:30:30;2.90;;;2.70;;
15061;SDS011;7630;50.306;8.566;2022-10-15T01:34:48;3.40;;;3.10;;
15061;SDS011;7630;50.306;8.566;2022-10-15T01:43:23;3.40;;;3.20;;
15061;SDS011;7630;50.306;8.566;2022-10-15T01:47:43;3.90;;;3.60;;
15061;SDS011;7630;50.306;8.566;2022-10-15T01:51:59;6.10;;;5.57;;
15061;SDS011;7630;50.306;8.566;2022-10-15T01:56:07;9.63;;;6.47;;
15061;SDS011;7630;50.306;8.566;2022-10-15T02:00:10;10.00;;;7.47;;
15061;SDS011;7630;50.306;8.566;2022-10-15T02:04:22;6.87;;;6.23;;
15061;SDS011;7630;50.306;8.566;2022-10-15T02:12:55;7.20;;;6.50;;
15061;SDS011;7630;50.306;8.566;2022-10-15T02:17:02;6.47;;;5.53;;
15061;SDS011;7630;50.306;8.566;2022-10-15T02:21:05;7.97;;;6.90;;
15061;SDS011;7630;50.306;8.566;2022-10-15T02:25:09;10.23;;;8.50;;
15061;SDS011;7630;50.306;8.566;2022-10-15T02:29:13;12.30;;;8.80;;
15061;SDS011;7630;50.306;8.566;2022-10-15T02:33:17;12.40;;;9.80;;
15061;SDS011;7630;50.306;8.566;2022-10-15T02:37:21;10.37;;;8.73;;
15061;SDS011;7630;50.306;8.566;2022-10-15T02:41:24;11.03;;;8.80;;
15061;SDS011;7630;50.306;8.566;2022-10-15T02:45:28;9.53;;;8.60;;
15061;SDS011;7630;50.306;8.566;2022-10-15T02:49:29;11.87;;;9.20;;
15061;SDS011;7630;50.306;8.566;2022-10-15T02:53:30;10.17;;;9.07;;
15061;SDS011;7630;50.306;8.566;2022-10-15T02:57:31;10.80;;;9.13;;
15061;SDS011;7630;50.306;8.566;2022-10-15T03:01:32;9.23;;;8.37;;
15061;SDS011;7630;50.306;8.566;2022-10-15T03:05:33;12.20;;;9.53;;
15061;SDS011;7630;50.306;8.566;2022-10-15T03:09:35;9.13;;;7.93;;
15061;SDS011;7630;50.306;8.566;2022-10-15T03:13:40;9.10;;;8.27;;
15061;SDS011;7630;50.306;8.566;2022-10-15T03:17:39;16.50;;;14.77;;
15061;SDS011;7630;50.306;8.566;2022-10-15T03:21:40;13.60;;;12.10;;
15061;SDS011;7630;50.306;8.566;2022-10-15T03:25:41;13.23;;;11.40;;
15061;SDS011;7630;50.306;8.566;2022-10-15T03:29:42;15.13;;;11.30;;
15061;SDS011;7630;50.306;8.566;2022-10-15T03:33:43;12.33;;;11.03;;
15061;SDS011;7630;50.306;8.566;2022-10-15T03:37:44;14.20;;;11.77;;
15061;SDS011;7630;50.306;8.566;2022-10-15T03:41:45;10.67;;;9.57;;
15061;SDS011;7630;50.306;8.566;2022-10-15T03:45:46;13.50;;;11.07;;
15061;SDS011;7630;50.306;8.566;2022-10-15T03:49:47;14.60;;;11.63;;
15061;SDS011;7630;50.306;8.566;2022-10-15T03:53:48;14.23;;;10.60;;
15061;SDS011;7630;50.306;8.566;2022-10-15T03:57:49;10.57;;;9.10;;
15061;SDS011;7630;50.306;8.566;2022-10-15T04:01:50;11.83;;;8.97;;
15061;SDS011;7630;50.306;8.566;2022-10-15T04:05:51;10.80;;;9.43;;
15061;SDS011;7630;50.306;8.566;2022-10-15T04:09:55;10.80;;;9.70;;
15061;SDS011;7630;50.306;8.566;2022-10-15T04:13:56;10.47;;;9.47;;
15061;SDS011;7630;50.306;8.566;2022-10-15T04:17:57;11.30;;;8.97;;
15061;SDS011;7630;50.306;8.566;2022-10-15T04:21:58;12.57;;;10.43;;
15061;SDS011;7630;50.306;8.566;2022-10-15T04:25:59;10.30;;;8.80;;
15061;SDS011;7630;50.306;8.566;2022-10-15T04:30:00;9.77;;;8.77;;
15061;SDS011;7630;50.306;8.566;2022-10-15T04:34:02;9.33;;;8.30;;
15061;SDS011;7630;50.306;8.566;2022-10-15T04:38:03;10.50;;;9.50;;
15061;SDS011;7630;50.306;8.566;2022-10-15T04:42:04;12.23;;;11.03;;
15061;SDS011;7630;50.306;8.566;2022-10-15T04:46:06;9.83;;;8.93;;
15061;SDS011;7630;50.306;8.566;2022-10-15T04:50:08;8.40;;;7.67;;
15061;SDS011;7630;50.306;8.566;2022-10-15T04:54:09;7.77;;;7.03;;
15061;SDS011;7630;50.306;8.566;2022-10-15T04:58:10;7.00;;;6.10;;
15061;SDS011;7630;50.306;8.566;2022-10-15T05:02:11;4.67;;;4.27;;
15061;SDS011;7630;50.306;8.566;2022-10-15T05:06:14;6.13;;;5.50;;
15061;SDS011;7630;50.306;8.566;2022-10-15T05:10:21;5.50;;;5.07;;
15061;SDS011;7630;50.306;8.566;2022-10-15T05:14:22;6.07;;;5.57;;
15061;SDS011;7630;50.306;8.566;2022-10-15T05:18:23;8.90;;;8.10;;
15061;SDS011;7630;50.306;8.566;2022-10-15T05:22:24;9.97;;;9.07;;
15061;SDS011;7630;50.306;8.566;2022-10-15T05:26:27;8.83;;;7.93;;
15061;SDS011;7630;50.306;8.566;2022-10-15T05:30:29;5.60;;;5.10;;
15061;SDS011;7630;50.306;8.566;2022-10-15T05:34:30;3.97;;;3.30;;
15061;SDS011;7630;50.306;8.566;2022-10-15T05:38:31;5.13;;;3.70;;
15061;SDS011;7630;50.306;8.566;2022-10-15T05:42:32;3.93;;;3.27;;
15061;SDS011;7630;50.306;8.566;2022-10-15T05:46:33;5.30;;;4.20;;
15061;SDS011;7630;50.306;8.566;2022-10-15T05:50:34;4.77;;;4.37;;
15061;SDS011;7630;50.306;8.566;2022-10-15T05:54:35;6.67;;;5.17;;
15061;SDS011;7630;50.306;8.566;2022-10-15T05:58:36;7.87;;;6.27;;
15061;SDS011;7630;50.306;8.566;2022-10-15T06:02:38;5.33;;;4.90;;
15061;SDS011;7630;50.306;8.566;2022-10-15T06:06:39;5.97;;;5.37;;
15061;SDS011;7630;50.306;8.566;2022-10-15T06:10:40;7.67;;;5.43;;
15061;SDS011;7630;50.306;8.566;2022-10-15T06:14:41;6.90;;;5.60;;
15061;SDS011;7630;50.306;8.566;2022-10-15T06:18:43;4.77;;;4.37;;
15061;SDS011;7630;50.306;8.566;2022-10-15T06:22:44;4.30;;;3.97;;
15061;SDS011;7630;50.306;8.566;2022-10-15T06:26:45;4.47;;;4.07;;
15061;SDS011;7630;50.306;8.566;2022-10-15T06:30:46;4.37;;;3.97;;
15061;SDS011;7630;50.306;8.566;2022-10-15T06:34:47;4.60;;;4.20;;
15061;SDS011;7630;50.306;8.566;2022-10-15T06:38:48;4.40;;;4.10;;
15061;SDS011;7630;50.306;8.566;2022-10-15T06:42:49;4.63;;;4.30;;
15061;SDS011;7630;50.306;8.566;2022-10-15T06:46:50;5.17;;;4.77;;
15061;SDS011;7630;50.306;8.566;2022-10-15T06:50:51;3.67;;;2.70;;
15061;SDS011;7630;50.306;8.566;2022-10-15T06:54:52;4.53;;;2.57;;
15061;SDS011;7630;50.306;8.566;2022-10-15T06:58:53;2.80;;;2.60;;
15061;SDS011;7630;50.306;8.566;2022-10-15T07:02:54;2.83;;;2.57;;
15061;SDS011;7630;50.306;8.566;2022-10-15T07:06:55;2.50;;;2.40;;
15061;SDS011;7630;50.306;8.566;2022-10-15T07:10:56;3.03;;;2.83;;
15061;SDS011;7630;50.306;8.566;2022-10-15T07:14:57;2.47;;;2.27;;
15061;SDS011;7630;50.306;8.566;2022-10-15T07:18:58;3.77;;;2.70;;
15061;SDS011;7630;50.306;8.566;2022-10-15T07:22:59;4.00;;;2.93;;
15061;SDS011;7630;50.306;8.566;2022-10-15T07:27:01;3.77;;;2.40;;
15061;SDS011;7630;50.306;8.566;2022-10-15T07:31:05;2.00;;;1.90;;
15061;SDS011;7630;50.306;8.566;2022-10-15T07:35:07;2.40;;;2.20;;
15061;SDS011;7630;50.306;8.566;2022-10-15T07:39:08;2.40;;;2.00;;
15061;SDS011;7630;50.306;8.566;2022-10-15T07:43:09;1.83;;;1.70;;
15061;SDS011;7630;50.306;8.566;2022-10-15T07:47:10;2.20;;;1.90;;
15061;SDS011;7630;50.306;8.566;2022-10-15T07:51:11;3.23;;;2.90;;
15061;SDS011;7630;50.306;8.566;2022-10-15T07:55:12;3.80;;;2.03;;
15061;SDS011;7630;50.306;8.566;2022-10-15T07:59:14;1.80;;;1.70;;
15061;SDS011;7630;50.306;8.566;2022-10-15T08:03:15;1.80;;;1.70;;
15061;SDS011;7630;50.306;8.566;2022-10-15T08:07:16;2.00;;;1.83;;
15061;SDS011;7630;50.306;8.566;2022-10-15T08:11:17;1.80;;;1.70;;
15061;SDS011;7630;50.306;8.566;2022-10-15T08:15:18;1.60;;;1.33;;
15061;SDS011;7630;50.306;8.566;2022-10-15T08:19:19;0.87;;;0.87;;
15061;SDS011;7630;50.306;8.566;2022-10-15T08:23:20;0.73;;;0.73;;
15061;SDS011;7630;50.306;8.566;2022-10-15T08:27:21;0.93;;;0.93;;
15061;SDS011;7630;50.306;8.566;2022-10-15T08:31:22;1.20;;;1.20;;
15061;SDS011;7630;50.306;8.566;2022-10-15T08:35:24;1.60;;;1.50;;
15061;SDS011;7630;50.306;8.566;2022-10-15T08:39:26;1.67;;;1.57;;
15061;SDS011;7630;50.306;8.566;2022-10-15T08:43:37;1.20;;;1.10;;
15061;SDS011;7630;50.306;8.566;2022-10-15T08:47:45;1.57;;;1.47;;
15061;SDS011;7630;50.306;8.566;2022-10-15T08:51:48;1.90;;;1.60;;
15061;SDS011;7630;50.306;8.566;2022-10-15T08:55:58;2.00;;;1.90;;
15061;SDS011;7630;50.306;8.566;2022-10-15T09:00:03;3.90;;;1.43;;
15061;SDS011;7630;50.306;8.566;2022-10-15T09:08:43;1.37;;;1.23;;
15061;SDS011;7630;50.306;8.566;2022-10-15T09:17:20;1.67;;;1.57;;
15061;SDS011;7630;50.306;8.566;2022-10-15T09:21:25;2.00;;;1.90;;
15061;SDS011;7630;50.306;8.566;2022-10-15T09:25:30;1.90;;;1.63;;
15061;SDS011;7630;50.306;8.566;2022-10-15T09:29:36;2.70;;;2.50;;
15061;SDS011;7630;50.306;8.566;2022-10-15T09:34:09;2.00;;;1.90;;
15061;SDS011;7630;50.306;8.566;2022-10-15T09:38:26;2.87;;;2.67;;
15061;SDS011;7630;50.306;8.566;2022-10-15T09:42:30;3.23;;;3.03;;
15061;SDS011;7630;50.306;8.566;2022-10-15T09:46:33;3.00;;;2.23;;
15061;SDS011;7630;50.306;8.566;2022-10-15T09:50:39;2.47;;;2.27;;
15061;SDS011;7630;50.306;8.566;2022-10-15T09:58:57;4.20;;;3.90;;
15061;SDS011;7630;50.306;8.566;2022-10-15T10:03:03;5.50;;;5.10;;
15061;SDS011;7630;50.306;8.566;2022-10-15T10:07:06;5.23;;;4.87;;
15061;SDS011;7630;50.306;8.566;2022-10-15T10:11:09;4.80;;;3.43;;
15061;SDS011;7630;50.306;8.566;2022-10-15T10:15:25;2.77;;;2.57;;
15061;SDS011;7630;50.306;8.566;2022-10-15T10:19:29;7.80;;;3.73;;
15061;SDS011;7630;50.306;8.566;2022-10-15T10:23:31;3.00;;;2.90;;
15061;SDS011;7630;50.306;8.566;2022-10-15T10:27:37;4.10;;;3.80;;
15061;SDS011;7630;50.306;8.566;2022-10-15T10:31:41;4.00;;;3.67;;
15061;SDS011;7630;50.306;8.566;2022-10-15T10:35:45;4.70;;;4.37;;
15061;SDS011;7630;50.306;8.566;2022-10-15T10:39:54;4.80;;;3.67;;
15061;SDS011;7630;50.306;8.566;2022-10-15T10:43:57;4.00;;;3.70;;
15061;SDS011;7630;50.306;8.566;2022-10-15T10:47:58;3.03;;;2.83;;
15061;SDS011;7630;50.306;8.566;2022-10-15T10:52:02;2.23;;;1.70;;
15061;SDS011;7630;50.306;8.566;2022-10-15T10:56:05;2.03;;;1.93;;
15061;SDS011;7630;50.306;8.566;2022-10-15T11:00:30;4.50;;;2.17;;
15061;SDS011;7630;50.306;8.566;2022-10-15T11:04:29;2.23;;;1.80;;
15061;SDS011;7630;50.306;8.566;2022-10-15T11:08:44;2.80;;;2.00;;
15061;SDS011;7630;50.306;8.566;2022-10-15T11:13:02;1.93;;;1.83;;
15061;SDS011;7630;50.306;8.566;2022-10-15T11:30:07;2.50;;;2.40;;
15061;SDS011;7630;50.306;8.566;2022-10-15T11:46:54;2.33;;;2.23;;
15061;SDS011;7630;50.306;8.566;2022-10-15T11:51:00;4.33;;;4.03;;
15061;SDS011;7630;50.306;8.566;2022-10-15T11:55:13;3.17;;;2.97;;
15061;SDS011;7630;50.306;8.566;2022-10-15T12:03:32;2.83;;;2.60;;
15061;SDS011;7630;50.306;8.566;2022-10-15T12:07:42;3.10;;;2.80;;
15061;SDS011;7630;50.306;8.566;2022-10-15T12:20:27;2.30;;;2.10;;
15061;SDS011;7630;50.306;8.566;2022-10-15T12:28:51;2.20;;;2.10;;
15061;SDS011;7630;50.306;8.566;2022-10-15T12:32:54;2.07;;;1.97;;
15061;SDS011;7630;50.306;8.566;2022-10-15T12:37:13;3.03;;;2.50;;
15061;SDS011;7630;50.306;8.566;2022-10-15T12:41:18;3.57;;;3.30;;
15061;SDS011;7630;50.306;8.566;2022-10-15T12:45:22;3.50;;;3.20;;
15061;SDS011;7630;50.306;8.566;2022-10-15T12:53:31;3.30;;;3.10;;
15061;SDS011;7630;50.306;8.566;2022-10-15T13:05:46;2.10;;;2.00;;
15061;SDS011;7630;50.306;8.566;2022-10-15T13:09:50;3.97;;;3.67;;
15061;SDS011;7630;50.306;8.566;2022-10-15T13:18:07;3.50;;;3.30;;
15061;SDS011;7630;50.306;8.566;2022-10-15T13:22:25;3.43;;;3.17;;
15061;SDS011;7630;50.306;8.566;2022-10-15T13:26:25;3.40;;;3.20;;
15061;SDS011;7630;50.306;8.566;2022-10-15T13:30:28;2.20;;;2.00;;
15061;SDS011;7630;50.306;8.566;2022-10-15T13:34:29;5.43;;;3.37;;
15061;SDS011;7630;50.306;8.566;2022-10-15T13:38:34;2.63;;;2.53;;
15061;SDS011;7630;50.306;8.566;2022-10-15T13:42:38;2.27;;;2.17;;
15061;SDS011;7630;50.306;8.566;2022-10-15T13:46:43;2.83;;;1.97;;
15061;SDS011;7630;50.306;8.566;2022-10-15T13:50:45;4.03;;;1.87;;
15061;SDS011;7630;50.306;8.566;2022-10-15T13:54:50;1.10;;;1.10;;
15061;SDS011;7630;50.306;8.566;2022-10-15T13:58:52;1.00;;;1.00;;
15061;SDS011;7630;50.306;8.566;2022-10-15T14:03:05;1.10;;;1.07;;
15061;SDS011;7630;50.306;8.566;2022-10-15T14:07:20;1.53;;;1.43;;
15061;SDS011;7630;50.306;8.566;2022-10-15T14:11:27;2.33;;;2.23;;
15061;SDS011;7630;50.306;8.566;2022-10-15T14:15:39;1.93;;;1.83;;
15061;SDS011;7630;50.306;8.566;2022-10-15T14:19:47;1.57;;;1.47;;
15061;SDS011;7630;50.306;8.566;2022-10-15T14:23:59;2.03;;;1.90;;
15061;SDS011;7630;50.306;8.566;2022-10-15T14:28:03;2.73;;;2.30;;
15061;SDS011;7630;50.306;8.566;2022-10-15T14:36:40;2.73;;;2.63;;
15061;SDS011;7630;50.306;8.566;2022-10-15T14:41:01;2.53;;;2.33;;
15061;SDS011;7630;50.306;8.566;2022-10-15T14:49:32;3.57;;;1.80;;
15061;SDS011;7630;50.306;8.566;2022-10-15T14:53:35;1.53;;;1.43;;
15061;SDS011;7630;50.306;8.566;2022-10-15T14:57:39;2.87;;;1.10;;
15061;SDS011;7630;50.306;8.566;2022-10-15T15:01:57;1.27;;;1.27;;
15061;SDS011;7630;50.306;8.566;2022-10-15T15:05:58;0.80;;;0.80;;
15061;SDS011;7630;50.306;8.566;2022-10-15T15:09:59;1.00;;;1.00;;
15061;SDS011;7630;50.306;8.566;2022-10-15T15:14:00;2.73;;;1.27;;
15061;SDS011;7630;50.306;8.566;2022-10-15T15:18:03;0.87;;;0.80;;
15061;SDS011;7630;50.306;8.566;2022-10-15T15:22:04;1.27;;;1.17;;
15061;SDS011;7630;50.306;8.566;2022-10-15T15:26:05;1.03;;;1.03;;
15061;SDS011;7630;50.306;8.566;2022-10-15T15:30:11;3.27;;;1.17;;
15061;SDS011;7630;50.306;8.566;2022-10-15T15:34:14;0.70;;;0.70;;
15061;SDS011;7630;50.306;8.566;2022-10-15T15:38:16;1.20;;;0.60;;
15061;SDS011;7630;50.306;8.566;2022-10-15T15:42:19;0.83;;;0.80;;
15061;SDS011;7630;50.306;8.566;2022-10-15T15:46:21;1.33;;;1.20;;
15061;SDS011;7630;50.306;8.566;2022-10-15T15:50:22;1.73;;;0.90;;
15061;SDS011;7630;50.306;8.566;2022-10-15T15:54:24;3.60;;;1.70;;
15061;SDS011;7630;50.306;8.566;2022-10-15T15:58:25;1.37;;;1.27;;
15061;SDS011;7630;50.306;8.566;2022-10-15T16:02:26;1.10;;;1.00;;
15061;SDS011;7630;50.306;8.566;2022-10-15T16:06:27;1.07;;;0.90;;
15061;SDS011;7630;50.306;8.566;2022-10-15T16:10:29;1.20;;;0.90;;
15061;SDS011;7630;50.306;8.566;2022-10-15T16:14:30;2.20;;;1.33;;
15061;SDS011;7630;50.306;8.566;2022-10-15T16:18:32;0.73;;;0.73;;
15061;SDS011;7630;50.306;8.566;2022-10-15T16:22:33;1.53;;;1.10;;
15061;SDS011;7630;50.306;8.566;2022-10-15T16:26:34;1.23;;;0.93;;
15061;SDS011;7630;50.306;8.566;2022-10-15T16:30:35;1.00;;;1.00;;
15061;SDS011;7630;50.306;8.566;2022-10-15T16:34:36;3.10;;;2.13;;
15061;SDS011;7630;50.306;8.566;2022-10-15T16:38:37;1.03;;;1.03;;
15061;SDS011;7630;50.306;8.566;2022-10-15T16:42:40;1.43;;;1.10;;
15061;SDS011;7630;50.306;8.566;2022-10-15T16:46:41;1.93;;;1.23;;
15061;SDS011;7630;50.306;8.566;2022-10-15T16:50:42;2.43;;;2.20;;
15061;SDS011;7630;50.306;8.566;2022-10-15T16:54:43;2.50;;;2.30;;
15061;SDS011;7630;50.306;8.566;2022-10-15T16:58:44;2.60;;;2.00;;
15061;SDS011;7630;50.306;8.566;2022-10-15T17:02:45;1.40;;;1.33;;
15061;SDS011;7630;50.306;8.566;2022-10-15T17:06:46;1.43;;;1.33;;
15061;SDS011;7630;50.306;8.566;2022-10-15T17:10:47;1.73;;;1.40;;
15061;SDS011;7630;50.306;8.566;2022-10-15T17:14:48;1.30;;;1.20;;
15061;SDS011;7630;50.306;8.566;2022-10-15T17:18:51;2.03;;;1.93;;
15061;SDS011;7630;50.306;8.566;2022-10-15T17:22:52;1.67;;;1.57;;
15061;SDS011;7630;50.306;8.566;2022-10-15T17:26:53;1.63;;;1.53;;
15061;SDS011;7630;50.306;8.566;2022-10-15T17:31:00;1.57;;;1.37;;
15061;SDS011;7630;50.306;8.566;2022-10-15T17:35:04;2.67;;;1.60;;
15061;SDS011;7630;50.306;8.566;2022-10-15T17:39:05;5.93;;;3.43;;
15061;SDS011;7630;50.306;8.566;2022-10-15T17:43:06;2.77;;;2.57;;
15061;SDS011;7630;50.306;8.566;2022-10-15T17:47:07;2.27;;;2.07;;
15061;SDS011;7630;50.306;8.566;2022-10-15T17:51:09;4.25;;;2.10;;
15061;SDS011;7630;50.306;8.566;2022-10-15T17:55:11;1.80;;;1.70;;
15061;SDS011;7630;50.306;8.566;2022-10-15T17:59:12;3.20;;;2.20;;
15061;SDS011;7630;50.306;8.566;2022-10-15T18:03:13;3.65;;;3.35;;
15061;SDS011;7630;50.306;8.566;2022-10-15T18:07:15;2.33;;;2.13;;
15061;SDS011;7630;50.306;8.566;2022-10-15T18:11:23;3.93;;;1.67;;
15061;SDS011;7630;50.306;8.566;2022-10-15T18:15:23;4.60;;;4.10;;
15061;SDS011;7630;50.306;8.566;2022-10-15T18:19:25;4.53;;;1.50;;
15061;SDS011;7630;50.306;8.566;2022-10-15T18:23:26;2.22;;;2.12;;
15061;SDS011;7630;50.306;8.566;2022-10-15T18:27:29;3.50;;;1.97;;
15061;SDS011;7630;50.306;8.566;2022-10-15T18:31:30;1.53;;;1.40;;
15061;SDS011;7630;50.306;8.566;2022-10-15T18:35:35;2.60;;;1.30;;
15061;SDS011;7630;50.306;8.566;2022-10-15T18:39:37;1.27;;;1.17;;
15061;SDS011;7630;50.306;8.566;2022-10-15T18:43:38;3.10;;;2.13;;
15061;SDS011;7630;50.306;8.566;2022-10-15T18:47:39;1.47;;;1.37;;
15061;SDS011;7630;50.306;8.566;2022-10-15T18:51:40;2.00;;;1.30;;
15061;SDS011;7630;50.306;8.566;2022-10-15T18:55:42;2.27;;;2.17;;
15061;SDS011;7630;50.306;8.566;2022-10-15T18:59:42;2.57;;;2.37;;
15061;SDS011;7630;50.306;8.566;2022-10-15T19:03:46;2.50;;;2.40;;
15061;SDS011;7630;50.306;8.566;2022-10-15T19:07:49;1.10;;;1.10;;
15061;SDS011;7630;50.306;8.566;2022-10-15T19:11:53;1.23;;;1.00;;
15061;SDS011;7630;50.306;8.566;2022-10-15T19:15:55;1.07;;;1.00;;
15061;SDS011;7630;50.306;8.566;2022-10-15T19:19:56;1.30;;;1.00;;
15061;SDS011;7630;50.306;8.566;2022-10-15T19:23:57;1.60;;;1.50;;
15061;SDS011;7630;50.306;8.566;2022-10-15T19:27:59;1.70;;;1.03;;
15061;SDS011;7630;50.306;8.566;2022-10-15T19:32:00;1.10;;;1.00;;
15061;SDS011;7630;50.306;8.566;2022-10-15T19:36:03;2.03;;;1.17;;
15061;SDS011;7630;50.306;8.566;2022-10-15T19:40:05;2.10;;;1.23;;
15061;SDS011;7630;50.306;8.566;2022-10-15T19:44:08;1.57;;;1.27;;
15061;SDS011;7630;50.306;8.566;2022-10-15T19:48:11;1.30;;;1.20;;
15061;SDS011;7630;50.306;8.566;2022-10-15T19:52:13;1.80;;;1.10;;
15061;SDS011;7630;50.306;8.566;2022-10-15T19:56:14;1.20;;;1.07;;
15061;SDS011;7630;50.306;8.566;2022-10-15T20:00:16;1.00;;;1.00;;
15061;SDS011;7630;50.306;8.566;2022-10-15T20:04:17;2.20;;;2.00;;
15061;SDS011;7630;50.306;8.566;2022-10-15T20:08:18;1.83;;;1.73;;
15061;SDS011;7630;50.306;8.566;2022-10-15T20:12:20;2.90;;;2.40;;
15061;SDS011;7630;50.306;8.566;2022-10-15T20:16:21;3.23;;;2.97;;
15061;SDS011;7630;50.306;8.566;2022-10-15T20:20:25;5.45;;;5.05;;
15061;SDS011;7630;50.306;8.566;2022-10-15T20:24:27;3.43;;;3.20;;
15061;SDS011;7630;50.306;8.566;2022-10-15T20:28:28;3.20;;;3.00;;
15061;SDS011;7630;50.306;8.566;2022-10-15T20:32:29;5.37;;;3.73;;
15061;SDS011;7630;50.306;8.566;2022-10-15T20:36:32;3.30;;;3.10;;
15061;SDS011;7630;50.306;8.566;2022-10-15T20:40:37;4.97;;;4.10;;
15061;SDS011;7630;50.306;8.566;2022-10-15T20:44:41;6.10;;;4.23;;
15061;SDS011;7630;50.306;8.566;2022-10-15T20:48:42;4.10;;;3.80;;
15061;SDS011;7630;50.306;8.566;2022-10-15T20:52:45;5.57;;;5.10;;
15061;SDS011;7630;50.306;8.566;2022-10-15T20:56:48;4.40;;;4.00;;
15061;SDS011;7630;50.306;8.566;2022-10-15T21:00:50;3.03;;;2.83;;
15061;SDS011;7630;50.306;8.566;2022-10-15T21:04:51;3.60;;;3.37;;
15061;SDS011;7630;50.306;8.566;2022-10-15T21:08:53;4.30;;;3.90;;
15061;SDS011;7630;50.306;8.566;2022-10-15T21:12:54;3.30;;;3.10;;
15061;SDS011;7630;50.306;8.566;2022-10-15T21:16:55;3.92;;;3.12;;
15061;SDS011;7630;50.306;8.566;2022-10-15T21:21:04;4.77;;;2.83;;
15061;SDS011;7630;50.306;8.566;2022-10-15T21:25:10;2.27;;;2.17;;
15061;SDS011;7630;50.306;8.566;2022-10-15T21:29:11;3.97;;;2.87;;
15061;SDS011;7630;50.306;8.566;2022-10-15T21:33:14;2.83;;;2.70;;
15061;SDS011;7630;50.306;8.566;2022-10-15T21:37:16;2.43;;;2.23;;
15061;SDS011;7630;50.306;8.566;2022-10-15T21:41:17;2.87;;;2.20;;
15061;SDS011;7630;50.306;8.566;2022-10-15T21:45:19;2.27;;;2.17;;
15061;SDS011;7630;50.306;8.566;2022-10-15T21:49:20;3.00;;;2.13;;
15061;SDS011;7630;50.306;8.566;2022-10-15T21:53:22;22.67;;;2.63;;
15061;SDS011;7630;50.306;8.566;2022-10-15T21:57:23;1.67;;;1.57;;
15061;SDS011;7630;50.306;8.566;2022-10-15T22:01:27;2.37;;;1.63;;
15061;SDS011;7630;50.306;8.566;2022-10-15T22:05:33;1.57;;;1.43;;
15061;SDS011;7630;50.306;8.566;2022-10-15T22:09:34;2.17;;;1.87;;
15061;SDS011;7630;50.306;8.566;2022-10-15T22:13:36;1.90;;;1.80;;
15061;SDS011;7630;50.306;8.566;2022-10-15T22:17:39;1.63;;;1.40;;
15061;SDS011;7630;50.306;8.566;2022-10-15T22:21:40;1.67;;;1.57;;
15061;SDS011;7630;50.306;8.566;2022-10-15T22:25:41;4.53;;;2.10;;
15061;SDS011;7630;50.306;8.566;2022-10-15T22:29:43;1.60;;;1.50;;
15061;SDS011;7630;50.306;8.566;2022-10-15T22:33:44;4.57;;;1.60;;
15061;SDS011;7630;50.306;8.566;2022-10-15T22:37:46;4.90;;;2.22;;
15061;SDS011;7630;50.306;8.566;2022-10-15T22:41:47;2.33;;;1.60;;
15061;SDS011;7630;50.306;8.566;2022-10-15T22:45:49;1.97;;;1.80;;
15061;SDS011;7630;50.306;8.566;2022-10-15T22:49:50;4.60;;;4.17;;
15061;SDS011;7630;50.306;8.566;2022-10-15T22:53:55;5.20;;;4.80;;
15061;SDS011;7630;50.306;8.566;2022-10-15T22:57:57;6.87;;;6.37;;
15061;SDS011;7630;50.306;8.566;2022-10-15T23:01:58;8.03;;;7.53;;
15061;SDS011;7630;50.306;8.566;2022-10-15T23:05:59;8.83;;;8.13;;
15061;SDS011;7630;50.306;8.566;2022-10-15T23:10:01;6.97;;;6.47;;
15061;SDS011;7630;50.306;8.566;2022-10-15T23:14:03;7.40;;;6.70;;
15061;SDS011;7630;50.306;8.566;2022-10-15T23:18:07;6.77;;;6.17;;
15061;SDS011;7630;50.306;8.566;2022-10-15T23:22:08;5.23;;;4.87;;
15061;SDS011;7630;50.306;8.566;2022-10-15T23:26:10;5.73;;;5.30;;
15061;SDS011;7630;50.306;8.566;2022-10-15T23:30:12;5.60;;;5.20;;
15061;SDS011;7630;50.306;8.566;2022-10-15T23:34:17;6.20;;;5.60;;
15061;SDS011;7630;50.306;8.566;2022-10-15T23:38:20;7.47;;;6.97;;
15061;SDS011;7630;50.306;8.566;2022-10-15T23:42:21;7.87;;;6.90;;
15061;SDS011;7630;50.306;8.566;2022-10-15T23:46:22;8.53;;;7.83;;
15061;SDS011;7630;50.306;8.566;2022-10-15T23:50:24;8.77;;;8.07;;
15061;SDS011;7630;50.306;8.566;2022-10-15T23:54:25;8.23;;;7.63;;
15061;SDS011;7630;50.306;8.566;2022-10-15T23:58:26;8.07;;;7.37;;
